sensor_id;sensor_type;location;lat;lon;timestamp;P1;durP1;ratioP1;P2;durP2;ratioP2
80732;SDS011;70130;44.534;18.678;2023-07-31T00:00:07;17.38;;;12.48;;
80732;SDS011;70130;44.534;18.678;2023-07-31T00:02:34;19.65;;;11.77;;
80732;SDS011;70130;44.534;18.678;2023-07-31T00:05:00;13.52;;;9.48;;
80732;SDS011;70130;44.534;18.678;2023-07-31T00:07:26;12.27;;;9.23;;
80732;SDS011;70130;44.534;18.678;2023-07-31T00:09:52;13.05;;;10.60;;
80732;SDS011;70130;44.534;18.678;2023-07-31T00:12:19;11.60;;;10.40;;
80732;SDS011;70130;44.534;18.678;2023-07-31T00:14:45;16.08;;;10.70;;
80732;SDS011;70130;44.534;18.678;2023-07-31T00:17:11;15.32;;;11.30;;
80732;SDS011;70130;44.534;18.678;2023-07-31T00:19:37;17.50;;;11.60;;
80732;SDS011;70130;44.534;18.678;2023-07-31T00:22:02;21.10;;;13.73;;
80732;SDS011;70130;44.534;18.678;2023-07-31T00:24:28;23.38;;;15.60;;
80732;SDS011;70130;44.534;18.678;2023-07-31T00:26:54;22.02;;;15.70;;
80732;SDS011;70130;44.534;18.678;2023-07-31T00:29:19;19.65;;;14.93;;
80732;SDS011;70130;44.534;18.678;2023-07-31T00:31:45;24.85;;;19.27;;
80732;SDS011;70130;44.534;18.678;2023-07-31T00:34:10;32.15;;;22.98;;
80732;SDS011;70130;44.534;18.678;2023-07-31T00:36:36;30.10;;;18.55;;
80732;SDS011;70130;44.534;18.678;2023-07-31T00:39:02;22.48;;;15.00;;
80732;SDS011;70130;44.534;18.678;2023-07-31T00:41:27;21.23;;;11.88;;
80732;SDS011;70130;44.534;18.678;2023-07-31T00:43:53;16.77;;;10.95;;
80732;SDS011;70130;44.534;18.678;2023-07-31T00:46:18;18.35;;;10.88;;
80732;SDS011;70130;44.534;18.678;2023-07-31T00:48:45;13.55;;;9.80;;
80732;SDS011;70130;44.534;18.678;2023-07-31T00:51:10;13.68;;;8.80;;
80732;SDS011;70130;44.534;18.678;2023-07-31T00:53:36;10.18;;;8.00;;
80732;SDS011;70130;44.534;18.678;2023-07-31T00:56:02;10.43;;;7.80;;
80732;SDS011;70130;44.534;18.678;2023-07-31T00:58:28;12.73;;;8.40;;
80732;SDS011;70130;44.534;18.678;2023-07-31T01:00:54;8.07;;;7.18;;
80732;SDS011;70130;44.534;18.678;2023-07-31T01:03:20;14.52;;;8.40;;
80732;SDS011;70130;44.534;18.678;2023-07-31T01:05:49;8.43;;;7.35;;
80732;SDS011;70130;44.534;18.678;2023-07-31T01:08:44;9.27;;;7.28;;
80732;SDS011;70130;44.534;18.678;2023-07-31T01:11:30;9.40;;;7.47;;
80732;SDS011;70130;44.534;18.678;2023-07-31T01:13:58;8.40;;;6.90;;
80732;SDS011;70130;44.534;18.678;2023-07-31T01:16:25;12.70;;;7.07;;
80732;SDS011;70130;44.534;18.678;2023-07-31T01:18:51;10.68;;;7.20;;
80732;SDS011;70130;44.534;18.678;2023-07-31T01:31:47;8.93;;;6.65;;
80732;SDS011;70130;44.534;18.678;2023-07-31T01:34:15;10.45;;;6.68;;
80732;SDS011;70130;44.534;18.678;2023-07-31T01:36:43;9.68;;;6.70;;
80732;SDS011;70130;44.534;18.678;2023-07-31T01:39:09;8.75;;;6.13;;
80732;SDS011;70130;44.534;18.678;2023-07-31T01:41:34;9.27;;;6.93;;
80732;SDS011;70130;44.534;18.678;2023-07-31T01:44:00;10.38;;;7.18;;
80732;SDS011;70130;44.534;18.678;2023-07-31T01:46:25;9.63;;;7.53;;
80732;SDS011;70130;44.534;18.678;2023-07-31T01:48:51;9.68;;;7.20;;
80732;SDS011;70130;44.534;18.678;2023-07-31T01:51:17;8.55;;;7.07;;
80732;SDS011;70130;44.534;18.678;2023-07-31T01:53:42;9.80;;;7.95;;
80732;SDS011;70130;44.534;18.678;2023-07-31T01:56:08;9.90;;;6.85;;
80732;SDS011;70130;44.534;18.678;2023-07-31T01:58:33;11.43;;;7.75;;
80732;SDS011;70130;44.534;18.678;2023-07-31T02:00:59;8.95;;;7.00;;
80732;SDS011;70130;44.534;18.678;2023-07-31T02:03:25;9.48;;;7.57;;
80732;SDS011;70130;44.534;18.678;2023-07-31T02:05:53;9.73;;;7.35;;
80732;SDS011;70130;44.534;18.678;2023-07-31T02:08:19;8.57;;;7.68;;
80732;SDS011;70130;44.534;18.678;2023-07-31T02:10:45;9.05;;;7.15;;
80732;SDS011;70130;44.534;18.678;2023-07-31T02:13:10;8.13;;;6.70;;
80732;SDS011;70130;44.534;18.678;2023-07-31T02:15:36;10.07;;;7.32;;
80732;SDS011;70130;44.534;18.678;2023-07-31T02:18:02;10.35;;;6.75;;
80732;SDS011;70130;44.534;18.678;2023-07-31T02:20:27;9.63;;;6.47;;
80732;SDS011;70130;44.534;18.678;2023-07-31T02:22:53;8.63;;;5.90;;
80732;SDS011;70130;44.534;18.678;2023-07-31T02:25:18;8.13;;;6.00;;
80732;SDS011;70130;44.534;18.678;2023-07-31T02:27:44;9.43;;;7.40;;
80732;SDS011;70130;44.534;18.678;2023-07-31T02:30:10;8.32;;;7.05;;
80732;SDS011;70130;44.534;18.678;2023-07-31T02:32:36;12.77;;;7.70;;
80732;SDS011;70130;44.534;18.678;2023-07-31T02:35:02;11.63;;;8.00;;
80732;SDS011;70130;44.534;18.678;2023-07-31T02:37:27;15.05;;;8.63;;
80732;SDS011;70130;44.534;18.678;2023-07-31T02:39:54;10.10;;;7.63;;
80732;SDS011;70130;44.534;18.678;2023-07-31T02:42:20;19.83;;;9.68;;
80732;SDS011;70130;44.534;18.678;2023-07-31T02:44:45;26.17;;;11.77;;
80732;SDS011;70130;44.534;18.678;2023-07-31T02:47:11;25.48;;;11.18;;
80732;SDS011;70130;44.534;18.678;2023-07-31T02:49:36;23.50;;;11.48;;
80732;SDS011;70130;44.534;18.678;2023-07-31T02:52:02;22.25;;;11.15;;
80732;SDS011;70130;44.534;18.678;2023-07-31T02:54:28;26.40;;;12.40;;
80732;SDS011;70130;44.534;18.678;2023-07-31T02:56:54;32.58;;;12.75;;
80732;SDS011;70130;44.534;18.678;2023-07-31T02:59:20;32.85;;;13.85;;
80732;SDS011;70130;44.534;18.678;2023-07-31T03:01:46;27.67;;;13.35;;
80732;SDS011;70130;44.534;18.678;2023-07-31T03:04:11;33.35;;;14.43;;
80732;SDS011;70130;44.534;18.678;2023-07-31T03:06:37;37.15;;;15.43;;
80732;SDS011;70130;44.534;18.678;2023-07-31T03:09:03;36.00;;;15.43;;
80732;SDS011;70130;44.534;18.678;2023-07-31T03:11:28;37.35;;;15.43;;
80732;SDS011;70130;44.534;18.678;2023-07-31T03:13:55;33.97;;;16.23;;
80732;SDS011;70130;44.534;18.678;2023-07-31T03:16:21;28.10;;;13.93;;
80732;SDS011;70130;44.534;18.678;2023-07-31T03:18:47;25.85;;;13.25;;
80732;SDS011;70130;44.534;18.678;2023-07-31T03:21:13;34.03;;;14.13;;
80732;SDS011;70130;44.534;18.678;2023-07-31T03:23:39;33.78;;;15.48;;
80732;SDS011;70130;44.534;18.678;2023-07-31T03:26:06;32.42;;;15.93;;
80732;SDS011;70130;44.534;18.678;2023-07-31T03:28:32;36.47;;;18.23;;
80732;SDS011;70130;44.534;18.678;2023-07-31T03:30:58;32.47;;;16.48;;
80732;SDS011;70130;44.534;18.678;2023-07-31T03:33:24;38.63;;;17.00;;
80732;SDS011;70130;44.534;18.678;2023-07-31T03:35:51;39.08;;;17.25;;
80732;SDS011;70130;44.534;18.678;2023-07-31T03:38:17;42.40;;;18.40;;
80732;SDS011;70130;44.534;18.678;2023-07-31T03:40:42;36.00;;;18.20;;
80732;SDS011;70130;44.534;18.678;2023-07-31T03:43:10;34.38;;;16.40;;
80732;SDS011;70130;44.534;18.678;2023-07-31T03:45:37;36.80;;;16.45;;
80732;SDS011;70130;44.534;18.678;2023-07-31T03:48:04;33.88;;;16.85;;
80732;SDS011;70130;44.534;18.678;2023-07-31T03:50:29;31.30;;;16.08;;
80732;SDS011;70130;44.534;18.678;2023-07-31T03:52:55;33.50;;;16.00;;
80732;SDS011;70130;44.534;18.678;2023-07-31T03:55:21;31.48;;;14.82;;
80732;SDS011;70130;44.534;18.678;2023-07-31T03:57:49;37.70;;;15.07;;
80732;SDS011;70130;44.534;18.678;2023-07-31T04:00:15;30.58;;;14.48;;
80732;SDS011;70130;44.534;18.678;2023-07-31T04:02:40;24.88;;;11.38;;
80732;SDS011;70130;44.534;18.678;2023-07-31T04:05:06;23.30;;;11.90;;
80732;SDS011;70130;44.534;18.678;2023-07-31T04:07:32;23.92;;;10.88;;
80732;SDS011;70130;44.534;18.678;2023-07-31T04:09:58;26.10;;;11.30;;
80732;SDS011;70130;44.534;18.678;2023-07-31T04:12:23;28.52;;;12.35;;
80732;SDS011;70130;44.534;18.678;2023-07-31T04:14:49;26.27;;;11.57;;
80732;SDS011;70130;44.534;18.678;2023-07-31T04:17:15;29.52;;;12.35;;
80732;SDS011;70130;44.534;18.678;2023-07-31T04:19:40;32.08;;;13.98;;
80732;SDS011;70130;44.534;18.678;2023-07-31T04:22:06;30.95;;;14.75;;
80732;SDS011;70130;44.534;18.678;2023-07-31T04:24:31;38.95;;;16.58;;
80732;SDS011;70130;44.534;18.678;2023-07-31T04:26:57;45.75;;;19.75;;
80732;SDS011;70130;44.534;18.678;2023-07-31T04:29:22;35.58;;;15.60;;
80732;SDS011;70130;44.534;18.678;2023-07-31T04:31:49;32.15;;;15.18;;
80732;SDS011;70130;44.534;18.678;2023-07-31T04:34:14;32.35;;;14.50;;
80732;SDS011;70130;44.534;18.678;2023-07-31T04:36:40;35.70;;;17.65;;
80732;SDS011;70130;44.534;18.678;2023-07-31T04:39:05;36.45;;;17.92;;
80732;SDS011;70130;44.534;18.678;2023-07-31T04:41:31;36.05;;;16.30;;
80732;SDS011;70130;44.534;18.678;2023-07-31T04:43:57;41.33;;;19.75;;
80732;SDS011;70130;44.534;18.678;2023-07-31T04:46:22;41.95;;;17.48;;
80732;SDS011;70130;44.534;18.678;2023-07-31T04:48:48;36.40;;;17.83;;
80732;SDS011;70130;44.534;18.678;2023-07-31T04:51:13;42.83;;;19.83;;
80732;SDS011;70130;44.534;18.678;2023-07-31T04:53:39;46.13;;;20.67;;
80732;SDS011;70130;44.534;18.678;2023-07-31T04:56:05;50.00;;;21.40;;
80732;SDS011;70130;44.534;18.678;2023-07-31T04:58:30;43.80;;;20.80;;
80732;SDS011;70130;44.534;18.678;2023-07-31T05:00:56;43.25;;;18.67;;
80732;SDS011;70130;44.534;18.678;2023-07-31T05:03:21;47.72;;;20.20;;
80732;SDS011;70130;44.534;18.678;2023-07-31T05:05:47;54.85;;;20.02;;
80732;SDS011;70130;44.534;18.678;2023-07-31T05:08:12;54.08;;;20.67;;
80732;SDS011;70130;44.534;18.678;2023-07-31T05:10:38;50.15;;;19.58;;
80732;SDS011;70130;44.534;18.678;2023-07-31T05:13:04;51.92;;;19.58;;
80732;SDS011;70130;44.534;18.678;2023-07-31T05:15:29;47.08;;;18.50;;
80732;SDS011;70130;44.534;18.678;2023-07-31T05:17:55;42.63;;;17.88;;
80732;SDS011;70130;44.534;18.678;2023-07-31T05:20:20;39.40;;;17.20;;
80732;SDS011;70130;44.534;18.678;2023-07-31T05:22:46;41.55;;;18.75;;
80732;SDS011;70130;44.534;18.678;2023-07-31T05:25:12;42.05;;;18.67;;
80732;SDS011;70130;44.534;18.678;2023-07-31T05:27:50;49.42;;;18.55;;
80732;SDS011;70130;44.534;18.678;2023-07-31T05:30:15;43.72;;;19.17;;
80732;SDS011;70130;44.534;18.678;2023-07-31T05:32:41;45.25;;;19.83;;
80732;SDS011;70130;44.534;18.678;2023-07-31T05:35:07;44.88;;;20.20;;
80732;SDS011;70130;44.534;18.678;2023-07-31T05:37:32;42.92;;;19.60;;
80732;SDS011;70130;44.534;18.678;2023-07-31T05:39:58;48.40;;;20.38;;
80732;SDS011;70130;44.534;18.678;2023-07-31T05:42:23;44.65;;;18.52;;
80732;SDS011;70130;44.534;18.678;2023-07-31T05:44:49;47.63;;;18.75;;
80732;SDS011;70130;44.534;18.678;2023-07-31T05:47:14;40.78;;;18.00;;
80732;SDS011;70130;44.534;18.678;2023-07-31T05:49:40;41.20;;;20.00;;
80732;SDS011;70130;44.534;18.678;2023-07-31T05:52:09;45.28;;;20.58;;
80732;SDS011;70130;44.534;18.678;2023-07-31T05:54:34;46.45;;;21.40;;
80732;SDS011;70130;44.534;18.678;2023-07-31T05:57:00;40.95;;;19.02;;
80732;SDS011;70130;44.534;18.678;2023-07-31T05:59:26;34.55;;;17.08;;
80732;SDS011;70130;44.534;18.678;2023-07-31T06:01:51;35.20;;;16.27;;
80732;SDS011;70130;44.534;18.678;2023-07-31T06:04:17;32.78;;;17.13;;
80732;SDS011;70130;44.534;18.678;2023-07-31T06:06:43;31.35;;;16.50;;
80732;SDS011;70130;44.534;18.678;2023-07-31T06:09:08;28.73;;;16.52;;
80732;SDS011;70130;44.534;18.678;2023-07-31T06:11:34;30.50;;;17.30;;
80732;SDS011;70130;44.534;18.678;2023-07-31T06:14:00;28.50;;;16.50;;
80732;SDS011;70130;44.534;18.678;2023-07-31T06:16:25;25.90;;;16.25;;
80732;SDS011;70130;44.534;18.678;2023-07-31T06:18:52;21.48;;;13.93;;
80732;SDS011;70130;44.534;18.678;2023-07-31T06:21:17;20.30;;;12.80;;
80732;SDS011;70130;44.534;18.678;2023-07-31T06:23:43;25.05;;;13.93;;
80732;SDS011;70130;44.534;18.678;2023-07-31T06:26:09;17.00;;;9.73;;
80732;SDS011;70130;44.534;18.678;2023-07-31T06:28:34;14.45;;;8.90;;
80732;SDS011;70130;44.534;18.678;2023-07-31T06:31:00;14.88;;;8.52;;
80732;SDS011;70130;44.534;18.678;2023-07-31T06:33:26;14.88;;;8.85;;
80732;SDS011;70130;44.534;18.678;2023-07-31T06:35:52;13.70;;;8.02;;
80732;SDS011;70130;44.534;18.678;2023-07-31T06:38:26;12.25;;;8.27;;
80732;SDS011;70130;44.534;18.678;2023-07-31T06:40:52;14.23;;;9.32;;
80732;SDS011;70130;44.534;18.678;2023-07-31T06:43:18;15.52;;;8.98;;
80732;SDS011;70130;44.534;18.678;2023-07-31T06:45:44;13.13;;;8.25;;
80732;SDS011;70130;44.534;18.678;2023-07-31T06:48:10;9.02;;;6.50;;
80732;SDS011;70130;44.534;18.678;2023-07-31T06:50:36;9.85;;;6.00;;
80732;SDS011;70130;44.534;18.678;2023-07-31T06:53:02;9.68;;;5.15;;
80732;SDS011;70130;44.534;18.678;2023-07-31T06:55:27;8.35;;;5.82;;
80732;SDS011;70130;44.534;18.678;2023-07-31T06:57:54;4.13;;;3.50;;
80732;SDS011;70130;44.534;18.678;2023-07-31T07:00:21;6.32;;;4.88;;
80732;SDS011;70130;44.534;18.678;2023-07-31T07:02:47;8.02;;;4.05;;
80732;SDS011;70130;44.534;18.678;2023-07-31T07:05:13;3.67;;;2.30;;
80732;SDS011;70130;44.534;18.678;2023-07-31T07:07:40;2.40;;;2.20;;
80732;SDS011;70130;44.534;18.678;2023-07-31T07:10:05;3.90;;;2.15;;
80732;SDS011;70130;44.534;18.678;2023-07-31T07:12:32;3.25;;;2.00;;
80732;SDS011;70130;44.534;18.678;2023-07-31T07:14:58;2.42;;;2.13;;
80732;SDS011;70130;44.534;18.678;2023-07-31T07:17:25;3.38;;;1.90;;
80732;SDS011;70130;44.534;18.678;2023-07-31T07:19:51;2.10;;;1.90;;
80732;SDS011;70130;44.534;18.678;2023-07-31T07:22:17;2.40;;;1.88;;
80732;SDS011;70130;44.534;18.678;2023-07-31T07:24:43;3.88;;;2.88;;
80732;SDS011;70130;44.534;18.678;2023-07-31T07:27:08;2.70;;;2.10;;
80732;SDS011;70130;44.534;18.678;2023-07-31T07:29:34;5.20;;;2.28;;
80732;SDS011;70130;44.534;18.678;2023-07-31T07:32:00;2.58;;;1.85;;
80732;SDS011;70130;44.534;18.678;2023-07-31T07:34:26;4.60;;;2.15;;
80732;SDS011;70130;44.534;18.678;2023-07-31T07:36:53;3.20;;;2.10;;
80732;SDS011;70130;44.534;18.678;2023-07-31T07:39:19;2.90;;;2.25;;
80732;SDS011;70130;44.534;18.678;2023-07-31T07:41:45;3.85;;;2.17;;
80732;SDS011;70130;44.534;18.678;2023-07-31T07:44:11;3.03;;;2.25;;
80732;SDS011;70130;44.534;18.678;2023-07-31T07:46:37;6.38;;;2.40;;
80732;SDS011;70130;44.534;18.678;2023-07-31T07:49:03;1.90;;;1.70;;
80732;SDS011;70130;44.534;18.678;2023-07-31T07:51:29;4.03;;;2.53;;
80732;SDS011;70130;44.534;18.678;2023-07-31T07:53:57;5.68;;;2.47;;
80732;SDS011;70130;44.534;18.678;2023-07-31T07:56:25;4.15;;;2.35;;
80732;SDS011;70130;44.534;18.678;2023-07-31T07:58:52;1.90;;;1.70;;
80732;SDS011;70130;44.534;18.678;2023-07-31T08:01:18;2.97;;;1.90;;
80732;SDS011;70130;44.534;18.678;2023-07-31T08:03:44;3.70;;;1.50;;
80732;SDS011;70130;44.534;18.678;2023-07-31T08:06:09;1.92;;;1.67;;
80732;SDS011;70130;44.534;18.678;2023-07-31T08:08:35;3.72;;;1.80;;
80732;SDS011;70130;44.534;18.678;2023-07-31T08:11:01;2.42;;;1.77;;
80732;SDS011;70130;44.534;18.678;2023-07-31T08:13:30;3.72;;;1.92;;
80732;SDS011;70130;44.534;18.678;2023-07-31T08:16:08;2.10;;;1.60;;
80732;SDS011;70130;44.534;18.678;2023-07-31T08:18:33;4.20;;;1.98;;
80732;SDS011;70130;44.534;18.678;2023-07-31T08:20:59;3.00;;;1.65;;
80732;SDS011;70130;44.534;18.678;2023-07-31T08:23:28;3.03;;;1.50;;
80732;SDS011;70130;44.534;18.678;2023-07-31T08:25:53;2.20;;;1.65;;
80732;SDS011;70130;44.534;18.678;2023-07-31T08:28:19;2.42;;;1.90;;
80732;SDS011;70130;44.534;18.678;2023-07-31T08:30:45;2.78;;;2.10;;
80732;SDS011;70130;44.534;18.678;2023-07-31T08:33:10;2.17;;;1.95;;
80732;SDS011;70130;44.534;18.678;2023-07-31T08:35:36;2.67;;;1.58;;
80732;SDS011;70130;44.534;18.678;2023-07-31T08:38:01;2.88;;;1.50;;
80732;SDS011;70130;44.534;18.678;2023-07-31T08:40:28;2.47;;;1.80;;
80732;SDS011;70130;44.534;18.678;2023-07-31T08:42:54;2.00;;;1.70;;
80732;SDS011;70130;44.534;18.678;2023-07-31T08:45:22;2.53;;;1.67;;
80732;SDS011;70130;44.534;18.678;2023-07-31T08:47:51;3.60;;;2.42;;
80732;SDS011;70130;44.534;18.678;2023-07-31T08:50:18;4.30;;;2.05;;
80732;SDS011;70130;44.534;18.678;2023-07-31T08:52:48;6.22;;;2.38;;
80732;SDS011;70130;44.534;18.678;2023-07-31T08:55:15;3.58;;;2.03;;
80732;SDS011;70130;44.534;18.678;2023-07-31T08:57:41;4.10;;;2.13;;
80732;SDS011;70130;44.534;18.678;2023-07-31T09:00:08;3.70;;;2.22;;
80732;SDS011;70130;44.534;18.678;2023-07-31T09:02:46;4.53;;;2.30;;
80732;SDS011;70130;44.534;18.678;2023-07-31T09:05:17;2.80;;;2.10;;
80732;SDS011;70130;44.534;18.678;2023-07-31T09:07:43;3.05;;;2.00;;
80732;SDS011;70130;44.534;18.678;2023-07-31T09:10:12;2.30;;;1.95;;
80732;SDS011;70130;44.534;18.678;2023-07-31T09:12:38;3.10;;;2.25;;
80732;SDS011;70130;44.534;18.678;2023-07-31T09:15:04;3.33;;;2.15;;
80732;SDS011;70130;44.534;18.678;2023-07-31T09:17:31;2.28;;;2.03;;
80732;SDS011;70130;44.534;18.678;2023-07-31T09:19:58;3.45;;;1.90;;
80732;SDS011;70130;44.534;18.678;2023-07-31T09:22:38;1.90;;;1.63;;
80732;SDS011;70130;44.534;18.678;2023-07-31T09:25:15;3.42;;;2.10;;
80732;SDS011;70130;44.534;18.678;2023-07-31T09:30:16;2.40;;;1.90;;
80732;SDS011;70130;44.534;18.678;2023-07-31T09:32:44;2.70;;;1.77;;
80732;SDS011;70130;44.534;18.678;2023-07-31T09:37:49;2.85;;;1.52;;
80732;SDS011;70130;44.534;18.678;2023-07-31T09:40:28;2.88;;;2.33;;
80732;SDS011;70130;44.534;18.678;2023-07-31T09:43:03;3.30;;;2.75;;
80732;SDS011;70130;44.534;18.678;2023-07-31T09:45:30;3.30;;;2.42;;
80732;SDS011;70130;44.534;18.678;2023-07-31T09:47:59;3.55;;;2.50;;
80732;SDS011;70130;44.534;18.678;2023-07-31T09:50:24;4.57;;;2.63;;
80732;SDS011;70130;44.534;18.678;2023-07-31T09:52:51;2.15;;;1.90;;
80732;SDS011;70130;44.534;18.678;2023-07-31T09:55:17;4.10;;;2.10;;
80732;SDS011;70130;44.534;18.678;2023-07-31T09:57:45;3.72;;;2.25;;
80732;SDS011;70130;44.534;18.678;2023-07-31T10:00:13;2.97;;;1.65;;
80732;SDS011;70130;44.534;18.678;2023-07-31T10:02:40;3.90;;;1.80;;
80732;SDS011;70130;44.534;18.678;2023-07-31T10:05:07;2.17;;;1.70;;
80732;SDS011;70130;44.534;18.678;2023-07-31T10:07:39;2.17;;;1.92;;
80732;SDS011;70130;44.534;18.678;2023-07-31T10:10:27;3.50;;;2.03;;
80732;SDS011;70130;44.534;18.678;2023-07-31T10:12:53;5.03;;;2.70;;
80732;SDS011;70130;44.534;18.678;2023-07-31T10:15:21;4.85;;;2.80;;
80732;SDS011;70130;44.534;18.678;2023-07-31T10:17:47;2.90;;;1.88;;
80732;SDS011;70130;44.534;18.678;2023-07-31T10:20:14;2.67;;;2.33;;
80732;SDS011;70130;44.534;18.678;2023-07-31T10:22:44;7.37;;;3.37;;
80732;SDS011;70130;44.534;18.678;2023-07-31T10:25:13;2.47;;;1.75;;
80732;SDS011;70130;44.534;18.678;2023-07-31T10:27:41;2.58;;;1.70;;
80732;SDS011;70130;44.534;18.678;2023-07-31T10:30:17;3.70;;;2.10;;
80732;SDS011;70130;44.534;18.678;2023-07-31T10:32:44;3.05;;;1.63;;
80732;SDS011;70130;44.534;18.678;2023-07-31T10:35:10;2.75;;;1.60;;
80732;SDS011;70130;44.534;18.678;2023-07-31T10:37:37;4.95;;;2.67;;
80732;SDS011;70130;44.534;18.678;2023-07-31T10:40:16;7.43;;;2.70;;
80732;SDS011;70130;44.534;18.678;2023-07-31T10:45:12;2.65;;;2.00;;
80732;SDS011;70130;44.534;18.678;2023-07-31T10:47:44;3.53;;;2.47;;
80732;SDS011;70130;44.534;18.678;2023-07-31T10:50:11;2.15;;;1.90;;
80732;SDS011;70130;44.534;18.678;2023-07-31T10:52:38;3.75;;;2.08;;
80732;SDS011;70130;44.534;18.678;2023-07-31T10:55:14;3.80;;;2.33;;
80732;SDS011;70130;44.534;18.678;2023-07-31T10:57:44;2.83;;;2.22;;
80732;SDS011;70130;44.534;18.678;2023-07-31T11:02:43;5.25;;;3.78;;
80732;SDS011;70130;44.534;18.678;2023-07-31T11:05:23;10.73;;;4.88;;
80732;SDS011;70130;44.534;18.678;2023-07-31T11:10:48;2.53;;;1.63;;
80732;SDS011;70130;44.534;18.678;2023-07-31T11:13:15;3.00;;;2.00;;
80732;SDS011;70130;44.534;18.678;2023-07-31T11:15:41;3.00;;;1.90;;
80732;SDS011;70130;44.534;18.678;2023-07-31T11:18:06;3.65;;;2.20;;
80732;SDS011;70130;44.534;18.678;2023-07-31T11:20:34;4.55;;;2.20;;
80732;SDS011;70130;44.534;18.678;2023-07-31T11:23:11;4.68;;;2.45;;
80732;SDS011;70130;44.534;18.678;2023-07-31T11:25:38;1.90;;;1.70;;
80732;SDS011;70130;44.534;18.678;2023-07-31T11:28:11;3.30;;;2.17;;
80732;SDS011;70130;44.534;18.678;2023-07-31T11:30:38;2.25;;;1.92;;
80732;SDS011;70130;44.534;18.678;2023-07-31T11:33:06;9.07;;;5.18;;
80732;SDS011;70130;44.534;18.678;2023-07-31T11:35:32;3.88;;;2.65;;
80732;SDS011;70130;44.534;18.678;2023-07-31T11:38:02;2.67;;;2.25;;
80732;SDS011;70130;44.534;18.678;2023-07-31T11:40:28;4.85;;;2.67;;
80732;SDS011;70130;44.534;18.678;2023-07-31T11:42:58;2.50;;;1.60;;
80732;SDS011;70130;44.534;18.678;2023-07-31T11:45:25;5.17;;;2.20;;
80732;SDS011;70130;44.534;18.678;2023-07-31T11:47:53;2.08;;;1.83;;
80732;SDS011;70130;44.534;18.678;2023-07-31T11:50:19;2.30;;;1.88;;
80732;SDS011;70130;44.534;18.678;2023-07-31T11:52:45;2.00;;;1.73;;
80732;SDS011;70130;44.534;18.678;2023-07-31T11:55:12;3.65;;;2.00;;
80732;SDS011;70130;44.534;18.678;2023-07-31T11:57:40;4.60;;;2.53;;
80732;SDS011;70130;44.534;18.678;2023-07-31T12:00:09;2.75;;;1.75;;
80732;SDS011;70130;44.534;18.678;2023-07-31T12:02:39;2.70;;;2.03;;
80732;SDS011;70130;44.534;18.678;2023-07-31T12:05:06;3.20;;;2.17;;
80732;SDS011;70130;44.534;18.678;2023-07-31T12:07:45;6.32;;;2.70;;
80732;SDS011;70130;44.534;18.678;2023-07-31T12:10:25;2.88;;;2.42;;
80732;SDS011;70130;44.534;18.678;2023-07-31T12:12:58;2.90;;;2.30;;
80732;SDS011;70130;44.534;18.678;2023-07-31T12:15:43;2.78;;;2.17;;
80732;SDS011;70130;44.534;18.678;2023-07-31T12:18:10;3.70;;;2.38;;
80732;SDS011;70130;44.534;18.678;2023-07-31T12:23:32;2.53;;;2.17;;
80732;SDS011;70130;44.534;18.678;2023-07-31T12:28:36;2.80;;;2.17;;
80732;SDS011;70130;44.534;18.678;2023-07-31T12:31:05;4.57;;;2.70;;
80732;SDS011;70130;44.534;18.678;2023-07-31T12:33:33;7.70;;;3.20;;
80732;SDS011;70130;44.534;18.678;2023-07-31T12:36:01;3.50;;;2.40;;
80732;SDS011;70130;44.534;18.678;2023-07-31T12:38:28;3.03;;;2.15;;
80732;SDS011;70130;44.534;18.678;2023-07-31T12:40:53;3.88;;;1.95;;
80732;SDS011;70130;44.534;18.678;2023-07-31T12:43:19;5.68;;;2.10;;
80732;SDS011;70130;44.534;18.678;2023-07-31T12:45:44;1.95;;;1.67;;
80732;SDS011;70130;44.534;18.678;2023-07-31T12:48:10;2.35;;;1.58;;
80732;SDS011;70130;44.534;18.678;2023-07-31T12:50:36;5.10;;;2.00;;
80732;SDS011;70130;44.534;18.678;2023-07-31T12:53:02;2.42;;;1.95;;
80732;SDS011;70130;44.534;18.678;2023-07-31T12:55:31;2.45;;;1.80;;
80732;SDS011;70130;44.534;18.678;2023-07-31T12:57:59;3.28;;;2.65;;
80732;SDS011;70130;44.534;18.678;2023-07-31T13:00:27;4.55;;;2.55;;
80732;SDS011;70130;44.534;18.678;2023-07-31T13:02:53;3.38;;;2.30;;
80732;SDS011;70130;44.534;18.678;2023-07-31T13:05:18;2.38;;;1.90;;
80732;SDS011;70130;44.534;18.678;2023-07-31T13:07:47;3.25;;;2.10;;
80732;SDS011;70130;44.534;18.678;2023-07-31T13:10:13;3.67;;;2.30;;
80732;SDS011;70130;44.534;18.678;2023-07-31T13:12:39;2.40;;;2.10;;
80732;SDS011;70130;44.534;18.678;2023-07-31T13:15:05;7.15;;;3.00;;
80732;SDS011;70130;44.534;18.678;2023-07-31T13:17:31;3.00;;;2.10;;
80732;SDS011;70130;44.534;18.678;2023-07-31T13:19:57;2.40;;;2.10;;
80732;SDS011;70130;44.534;18.678;2023-07-31T13:22:23;4.03;;;2.70;;
80732;SDS011;70130;44.534;18.678;2023-07-31T13:24:48;5.97;;;2.65;;
80732;SDS011;70130;44.534;18.678;2023-07-31T13:27:14;4.70;;;2.20;;
80732;SDS011;70130;44.534;18.678;2023-07-31T13:29:53;3.92;;;3.13;;
80732;SDS011;70130;44.534;18.678;2023-07-31T13:32:19;3.20;;;1.80;;
80732;SDS011;70130;44.534;18.678;2023-07-31T13:34:46;2.90;;;2.28;;
80732;SDS011;70130;44.534;18.678;2023-07-31T13:37:13;4.85;;;2.78;;
80732;SDS011;70130;44.534;18.678;2023-07-31T13:39:39;4.70;;;2.20;;
80732;SDS011;70130;44.534;18.678;2023-07-31T13:42:05;3.58;;;1.77;;
80732;SDS011;70130;44.534;18.678;2023-07-31T13:44:33;3.67;;;2.70;;
80732;SDS011;70130;44.534;18.678;2023-07-31T13:47:02;2.75;;;2.20;;
80732;SDS011;70130;44.534;18.678;2023-07-31T13:49:28;4.60;;;2.30;;
80732;SDS011;70130;44.534;18.678;2023-07-31T13:51:55;3.75;;;2.10;;
80732;SDS011;70130;44.534;18.678;2023-07-31T13:54:21;3.00;;;2.30;;
80732;SDS011;70130;44.534;18.678;2023-07-31T13:56:47;2.83;;;2.35;;
80732;SDS011;70130;44.534;18.678;2023-07-31T13:59:13;2.78;;;1.92;;
80732;SDS011;70130;44.534;18.678;2023-07-31T14:01:40;5.35;;;2.85;;
80732;SDS011;70130;44.534;18.678;2023-07-31T14:04:05;2.45;;;1.77;;
80732;SDS011;70130;44.534;18.678;2023-07-31T14:06:31;3.17;;;1.67;;
80732;SDS011;70130;44.534;18.678;2023-07-31T14:08:56;2.72;;;2.15;;
80732;SDS011;70130;44.534;18.678;2023-07-31T14:11:22;2.60;;;1.83;;
80732;SDS011;70130;44.534;18.678;2023-07-31T14:13:49;2.55;;;1.90;;
80732;SDS011;70130;44.534;18.678;2023-07-31T14:16:15;4.60;;;2.25;;
80732;SDS011;70130;44.534;18.678;2023-07-31T14:18:41;3.67;;;2.10;;
80732;SDS011;70130;44.534;18.678;2023-07-31T14:21:07;3.75;;;2.78;;
80732;SDS011;70130;44.534;18.678;2023-07-31T14:23:32;5.47;;;2.95;;
80732;SDS011;70130;44.534;18.678;2023-07-31T14:25:58;4.97;;;2.40;;
80732;SDS011;70130;44.534;18.678;2023-07-31T14:28:24;7.10;;;2.55;;
80732;SDS011;70130;44.534;18.678;2023-07-31T14:30:49;3.65;;;2.83;;
80732;SDS011;70130;44.534;18.678;2023-07-31T14:33:15;5.03;;;2.38;;
80732;SDS011;70130;44.534;18.678;2023-07-31T14:35:41;4.57;;;2.85;;
80732;SDS011;70130;44.534;18.678;2023-07-31T14:38:06;5.65;;;2.78;;
80732;SDS011;70130;44.534;18.678;2023-07-31T14:40:32;4.97;;;3.13;;
80732;SDS011;70130;44.534;18.678;2023-07-31T14:42:57;3.35;;;2.40;;
80732;SDS011;70130;44.534;18.678;2023-07-31T14:45:23;3.83;;;2.17;;
80732;SDS011;70130;44.534;18.678;2023-07-31T14:47:48;4.22;;;2.13;;
80732;SDS011;70130;44.534;18.678;2023-07-31T14:50:14;2.65;;;2.17;;
80732;SDS011;70130;44.534;18.678;2023-07-31T14:52:40;4.50;;;3.65;;